Flight Track Log - Related Links

Times and Time Zones

All times are in EDT time to prevent confusion due to time zone crossing. See the UAL3776 flight status page for this flight to view local times or setup timezone preferences in your user account.

Time Position Orientation Groundspeed Altitude Reporting Facility
EDT Latitude Longitude Course Direction KTS MPH feet Rate Location/Type
Fri 03:57:06 PM 38.9333 -77.5167 201° Southwest 176 203 1,700  Level Potomac TRACON
Fri 03:58:06 PM 38.9167 -77.5833 252° West 226 260 3,700 2,752 Climbing Potomac TRACON
Fri 03:58:55 PM 38.8772 -77.6369 227° Southwest 262 302 6,700 3,000 Climbing Washington Center
Fri 03:59:56 PM 38.8125 -77.6403 182° South 249 287 9,200 1,664 Climbing Washington Center
Fri 04:00:00 PM 38.5262 -77.6491 185° South  Level Estimated
Fri 04:00:54 PM 38.7314 -77.6275 173° South 268 308 10,000  Level Washington Center
Fri 04:01:00 PM 38.4281 -77.5810 151° Southeast  Level FlightAware Approximate
Fri 04:01:55 PM 38.6614 -77.5803 152° Southeast 274 315 11,000  Level Washington Center
Fri 04:02:00 PM 38.3239 -77.6321 201° Southwest  Level Estimated
Fri 04:03:53 PM 38.5078 -77.5364 167° South 284 327 15,000  Level Washington Center
Fri 04:04:54 PM 38.4178 -77.5633 193° South 315 362 17,300 2,132 Climbing Washington Center
Fri 04:05:54 PM 38.3269 -77.6269 209° Southwest 325 374 19,300 1,835 Climbing Washington Center
Fri 04:06:55 PM 38.2486 -77.6936 214° Southwest 335 386 21,000 1,339 Climbing Washington Center
Fri 04:07:55 PM 38.1661 -77.7681 215° Southwest 354 407 22,000 508 Climbing Washington Center
Fri 04:08:53 PM 38.0772 -77.8419 213° Southwest 372 428 22,000  Level Washington Center
Fri 04:09:53 PM 37.9881 -77.9156 213° Southwest 379 436 22,000  Level Washington Center
Fri 04:10:54 PM 37.8969 -77.9969 215° Southwest 394 453 22,000  Level Washington Center
Fri 04:11:54 PM 37.8033 -78.0756 214° Southwest 404 465 22,000  Level Washington Center
Fri 04:12:55 PM 37.7206 -78.1436 213° Southwest 404 465 22,000  Level Washington Center
Fri 04:13:55 PM 37.6250 -78.2297 216° Southwest 398 458 22,000  Level Washington Center
Fri 04:14:53 PM 37.5314 -78.3075 213° Southwest 398 458 22,000  Level Washington Center
Fri 04:15:54 PM 37.4400 -78.3828 213° Southwest 404 465 22,000  Level Washington Center
Fri 04:16:55 PM 37.3569 -78.4503 213° Southwest 404 465 22,000  Level Washington Center
Fri 04:17:55 PM 37.2675 -78.5278 215° Southwest 404 465 22,000  Level Washington Center
Fri 04:18:53 PM 37.1761 -78.6025 213° Southwest 404 465 22,000  Level Washington Center
Fri 04:19:53 PM 37.0844 -78.6744 212° Southwest 404 465 22,000  Level Washington Center
Fri 04:20:54 PM 36.9864 -78.7564 214° Southwest 404 465 22,000 -347 Level Washington Center
Fri 04:21:54 PM 36.8947 -78.8331 214° Southwest 404 465 21,300 -1,587 Descending Washington Center
Fri 04:22:55 PM 36.8072 -78.9047 213° Southwest 404 465 18,800 -2,319 Descending Washington Center
Fri 04:23:53 PM 36.7217 -78.9736 213° Southwest 391 450 16,700 -2,370 Descending Washington Center
Fri 04:24:54 PM 36.6353 -79.0086 198° South 367 422 14,100 -2,491 Descending Washington Center
Fri 04:25:39 PM 36.5650 -78.9847 165° South 343 395 12,300 -2,500 Descending Washington Center
Fri 04:25:54 PM 36.5422 -78.9814 173° South 329 379 11,600 -1,970 Descending Washington Center
Fri 04:26:46 PM 36.4636 -78.9547 165° South 331 381 10,100 -906 Descending Washington Center
Fri 04:27:40 PM 36.3911 -78.9361 168° South 311 358 10,000 -87 Descending Washington Center
Fri 04:27:55 PM 36.3706 -78.9275 161° South 321 369 10,000 -712 Level Washington Center
Fri 04:28:39 PM 36.3061 -78.9117 169° South 282 325 9,300 -915 Descending Washington Center
Fri 04:28:54 PM 36.2939 -78.9061 160° South 303 349 9,100 -1,125 Descending Washington Center
Fri 04:29:43 PM 36.2378 -78.8933 170° South 255 293 8,100 -635 Descending Washington Center
Fri 04:30:38 PM 36.1758 -78.8753 167° South 238 274 8,000 -86 Descending Washington Center
Fri 04:30:53 PM 36.1592 -78.8669 158° South 251 289 8,000  Level Washington Center
Fri 04:31:35 PM 36.1094 -78.8547 169° South 239 275 8,000  Level Washington Center
Fri 04:31:53 PM 36.0931 -78.8514 171° South 251 289 8,000  Level Washington Center
Fri 04:32:38 PM 36.0411 -78.8414 171° South 248 285 8,000  Level Washington Center
Fri 04:32:55 PM 36.0264 -78.8408 178° South 246 283 8,000  Level Washington Center
Fri 04:33:31 PM 35.9803 -78.8467 186° South 242 278 8,000 -400 Level Washington Center
Fri 04:33:55 PM 35.9614 -78.8561 202° Southwest 239 275 7,600 -1,400 Descending Washington Center
Fri 04:34:31 PM 35.9272 -78.8856 215° Southwest 223 257 6,600 -1,574 Descending Washington Center
Fri 04:34:56 PM 35.9119 -78.9028 222° Southwest 225 259 6,000 -1,672 Descending Washington Center
Fri 04:35:32 PM 35.8861 -78.9350 225° Southwest 211 243 4,900 -1,833 Descending Washington Center

Login

Don't have an account? Register now (free) for customized features, flight alerts, and more!